首页
METAR-TAF:

METAR-TAF

机场 :

Paris, 田纳西州, 美国

纬度: 36-20-18N, 经度: 088-22-58W, 海拔: 177米

当前天气观测

该预报发布于13分钟前的08:15 UTC
风速6节,风向北转东北
温度 8°C
湿度 93%
气压 1017 hPa
能見度: 8.0公里
少量云层高于800英尺
散云层高于10000英尺
轻雾

METAR: KPHT 050815Z AUTO 02006KT 5SM BR FEW008 SCT100 08/07 A3004 RMK A01

时间: 03:28 (08:28 UTC)


TAF: 丢失

超过4000个机场的气象观测和天气预报(METAR&TAF报告)。

可查询的气象台以黄色和红色小点在地图上表示。

将鼠标移到小点上方,可查看气象台名称。

然后点击查看天气观测和预报。

如需切换地图:点击带黑十字的绿色按钮放大地图;点击带横线的绿色按钮缩小地图;或者点击绿色箭头查看邻近地区的地图。


METAR-TAF: